createdAt,value
2018-06-04T00:01:20.936Z,18.00
2018-06-04T00:03:52.636Z,18.00
2018-06-04T00:06:24.334Z,18.00
2018-06-04T00:08:55.871Z,18.00
2018-06-04T00:11:27.469Z,17.90
2018-06-04T00:13:59.211Z,17.80
2018-06-04T00:16:30.967Z,17.80
2018-06-04T00:19:02.500Z,17.80
2018-06-04T00:21:34.184Z,17.80
2018-06-04T00:24:05.786Z,17.90
2018-06-04T00:26:37.446Z,17.90
2018-06-04T00:29:08.995Z,18.00
2018-06-04T00:31:40.734Z,18.00
2018-06-04T00:34:12.334Z,18.00
2018-06-04T00:36:44.008Z,17.90
2018-06-04T00:39:15.622Z,17.90
2018-06-04T00:41:47.216Z,17.90
2018-06-04T00:44:18.829Z,17.80
2018-06-04T00:46:50.434Z,17.80
2018-06-04T00:51:53.130Z,17.80
2018-06-04T00:54:24.656Z,17.70
2018-06-04T00:56:56.426Z,17.60
2018-06-04T00:59:28.084Z,17.40
2018-06-04T01:02:00.677Z,17.30
2018-06-04T01:04:32.189Z,17.10
2018-06-04T01:07:03.981Z,17.00
2018-06-04T01:09:35.605Z,17.00
2018-06-04T01:12:07.326Z,16.90
2018-06-04T01:14:38.918Z,16.90
2018-06-04T01:17:10.783Z,16.90
2018-06-04T01:19:42.361Z,16.90
2018-06-04T01:22:14.290Z,16.80
2018-06-04T01:24:46.206Z,16.80
2018-06-04T01:27:17.958Z,16.70
2018-06-04T01:29:49.628Z,16.60
2018-06-04T01:32:21.376Z,16.60
2018-06-04T01:34:52.912Z,16.50
2018-06-04T01:37:24.538Z,16.50
2018-06-04T01:39:56.192Z,16.40
2018-06-04T01:42:27.997Z,16.40
2018-06-04T01:44:59.617Z,16.40
2018-06-04T01:47:31.238Z,16.40
2018-06-04T01:50:02.927Z,16.40
2018-06-04T01:55:11.454Z,16.40
2018-06-04T01:57:43.062Z,16.40
2018-06-04T02:00:14.820Z,16.30
2018-06-04T02:02:46.573Z,16.20
2018-06-04T02:05:18.109Z,16.20
2018-06-04T02:07:49.800Z,16.10
2018-06-04T02:10:21.514Z,16.10
2018-06-04T02:12:53.097Z,16.10
2018-06-04T02:17:55.801Z,16.10
2018-06-04T02:20:27.728Z,16.10
2018-06-04T02:22:59.409Z,16.10
2018-06-04T02:25:31.036Z,16.10
2018-06-04T02:28:02.726Z,16.10
2018-06-04T02:30:34.274Z,16.10
2018-06-04T02:33:06.032Z,16.10
2018-06-04T02:35:37.549Z,16.00
2018-06-04T02:38:09.177Z,16.00
2018-06-04T02:40:40.767Z,16.00
2018-06-04T02:43:12.374Z,15.90
2018-06-04T02:45:44.011Z,15.90
2018-06-04T02:48:15.746Z,15.80
2018-06-04T02:50:47.417Z,15.80
2018-06-04T02:53:19.017Z,15.70
2018-06-04T02:55:50.600Z,15.70
2018-06-04T02:58:22.462Z,15.70
2018-06-04T03:00:54.049Z,15.70
2018-06-04T03:03:25.493Z,15.70
2018-06-04T03:05:57.175Z,15.70
2018-06-04T03:08:28.821Z,15.60
2018-06-04T03:11:00.442Z,15.60
2018-06-04T03:13:32.196Z,15.50
2018-06-04T03:16:03.778Z,15.50
2018-06-04T03:18:35.598Z,15.40
2018-06-04T03:21:07.307Z,15.50
2018-06-04T03:26:10.301Z,15.50
2018-06-04T03:28:41.886Z,15.50
2018-06-04T03:31:13.583Z,15.50
2018-06-04T03:33:45.206Z,15.60
2018-06-04T03:36:16.851Z,15.60
2018-06-04T03:38:48.584Z,15.70
2018-06-04T03:41:20.312Z,15.80
2018-06-04T03:43:52.010Z,15.90
2018-06-04T03:46:23.629Z,15.90
2018-06-04T03:48:55.420Z,16.00
2018-06-04T03:51:27.094Z,16.00
2018-06-04T03:53:58.671Z,16.00
2018-06-04T03:56:30.487Z,16.10
2018-06-04T03:59:02.153Z,16.10
2018-06-04T04:01:33.669Z,16.10
2018-06-04T04:04:05.298Z,16.20
2018-06-04T04:06:36.924Z,16.20
2018-06-04T04:09:10.738Z,16.30
2018-06-04T04:11:42.477Z,16.40
2018-06-04T04:14:14.070Z,16.50
2018-06-04T04:16:45.644Z,16.60
2018-06-04T04:19:17.427Z,16.70
2018-06-04T04:21:48.957Z,16.70
2018-06-04T04:24:20.819Z,16.80
2018-06-04T04:26:52.718Z,16.90
2018-06-04T04:29:24.437Z,17.00
2018-06-04T04:31:56.029Z,17.10
2018-06-04T04:34:27.604Z,17.10
2018-06-04T04:36:59.318Z,17.20
2018-06-04T04:39:30.950Z,17.30
2018-06-04T04:42:02.690Z,17.30
2018-06-04T04:44:34.346Z,17.40
2018-06-04T04:47:05.954Z,17.50
2018-06-04T04:49:37.638Z,17.60
2018-06-04T04:52:09.142Z,17.70
2018-06-04T04:54:40.865Z,17.90
2018-06-04T04:57:12.623Z,17.90
2018-06-04T04:59:44.428Z,18.00
2018-06-04T05:02:15.975Z,18.10
2018-06-04T05:04:47.680Z,18.30
2018-06-04T05:07:19.188Z,18.30
2018-06-04T05:09:50.895Z,18.40
2018-06-04T05:12:22.424Z,18.50
2018-06-04T05:14:54.139Z,18.60
2018-06-04T05:17:25.853Z,18.60
2018-06-04T05:19:57.526Z,18.70
2018-06-04T05:22:29.184Z,18.80
2018-06-04T05:25:00.732Z,18.90
2018-06-04T05:27:32.448Z,18.90
2018-06-04T05:30:04.303Z,19.00
2018-06-04T05:32:35.992Z,19.10
2018-06-04T05:35:07.664Z,19.10
2018-06-04T05:37:39.202Z,19.20
2018-06-04T05:40:10.871Z,19.30
2018-06-04T05:42:42.401Z,19.40
2018-06-04T05:45:14.139Z,19.40
2018-06-04T05:47:45.802Z,19.50
2018-06-04T05:50:17.406Z,19.60
2018-06-04T05:52:48.998Z,19.70
2018-06-04T05:55:20.714Z,19.80
2018-06-04T05:57:52.349Z,19.90
2018-06-04T06:00:24.021Z,20.00
2018-06-04T06:02:55.565Z,20.10
2018-06-04T06:05:27.322Z,20.20
2018-06-04T06:07:58.958Z,20.30
2018-06-04T06:10:30.532Z,20.40
2018-06-04T06:13:02.090Z,20.50
2018-06-04T06:15:33.809Z,20.70
2018-06-04T06:18:05.838Z,20.80
2018-06-04T06:20:37.618Z,20.90
2018-06-04T06:23:09.328Z,21.00
2018-06-04T06:25:41.173Z,21.10
2018-06-04T06:28:12.861Z,21.10
2018-06-04T06:30:44.724Z,21.30
2018-06-04T06:35:47.609Z,21.50
2018-06-04T06:38:19.263Z,21.60
2018-06-04T06:40:50.761Z,21.70
2018-06-04T06:43:22.371Z,21.80
2018-06-04T06:45:54.043Z,21.90
2018-06-04T06:48:25.648Z,22.10
2018-06-04T06:50:57.463Z,22.20
2018-06-04T06:53:28.994Z,22.20
2018-06-04T06:56:00.592Z,22.40
2018-06-04T06:58:32.203Z,22.40
2018-06-04T07:01:03.887Z,22.50
2018-06-04T07:03:35.594Z,22.60
2018-06-04T07:06:07.198Z,22.70
2018-06-04T07:08:38.724Z,22.70
2018-06-04T07:11:10.337Z,22.80
2018-06-04T07:13:41.937Z,22.80
2018-06-04T07:16:13.618Z,22.90
2018-06-04T07:18:45.256Z,23.00
2018-06-04T07:21:16.929Z,23.20
2018-06-04T07:23:48.546Z,23.30
2018-06-04T07:26:20.341Z,23.40
2018-06-04T07:28:52.017Z,23.40
2018-06-04T07:31:23.669Z,23.40
2018-06-04T07:33:55.405Z,23.50
2018-06-04T07:36:26.965Z,23.60
2018-06-04T07:38:58.502Z,23.70
2018-06-04T07:41:30.238Z,23.70
2018-06-04T07:44:01.829Z,23.80
2018-06-04T07:46:33.513Z,23.80
2018-06-04T07:49:05.407Z,23.90
2018-06-04T07:51:37.040Z,24.00
2018-06-04T07:54:08.753Z,24.20
2018-06-04T07:56:40.333Z,24.20
2018-06-04T07:59:12.064Z,24.30
2018-06-04T08:01:44.028Z,24.40
2018-06-04T08:04:15.561Z,24.60
2018-06-04T08:06:47.153Z,24.70
2018-06-04T08:11:49.937Z,25.00
2018-06-04T08:14:21.490Z,25.10
2018-06-04T08:16:53.210Z,25.30
2018-06-04T08:19:24.897Z,25.40
2018-06-04T08:21:56.625Z,25.50
2018-06-04T08:24:28.304Z,25.60
2018-06-04T08:27:00.099Z,25.70
2018-06-04T08:29:31.613Z,25.80
2018-06-04T08:32:03.203Z,25.90
2018-06-04T08:34:34.815Z,26.10
2018-06-04T08:37:06.539Z,26.10
2018-06-04T08:39:38.117Z,26.10
2018-06-04T08:42:09.721Z,26.00
2018-06-04T08:44:41.348Z,25.80
2018-06-04T08:47:13.041Z,25.70
2018-06-04T08:49:44.566Z,25.60
2018-06-04T08:52:16.339Z,25.50
2018-06-04T08:54:47.894Z,25.50
2018-06-04T08:57:19.651Z,25.40
2018-06-04T08:59:51.376Z,25.30
2018-06-04T09:02:23.013Z,25.30
2018-06-04T09:04:54.604Z,25.30
2018-06-04T09:07:26.238Z,25.20
2018-06-04T09:09:57.821Z,25.20
2018-06-04T09:12:29.553Z,25.10
2018-06-04T09:15:01.222Z,25.00
2018-06-04T09:17:32.825Z,25.00
2018-06-04T09:20:04.638Z,24.90
2018-06-04T09:22:36.220Z,24.80
2018-06-04T09:25:07.762Z,24.90
2018-06-04T09:27:39.598Z,25.00
2018-06-04T09:30:11.153Z,25.20
2018-06-04T09:32:42.857Z,25.40
2018-06-04T09:35:14.498Z,25.70
2018-06-04T09:37:46.178Z,25.90
2018-06-04T09:40:17.914Z,26.10
2018-06-04T09:42:49.579Z,26.20
2018-06-04T09:45:21.278Z,26.40
2018-06-04T09:47:53.100Z,26.80
2018-06-04T09:50:24.706Z,27.10
2018-06-04T09:52:56.308Z,27.40
2018-06-04T09:55:27.811Z,27.70
2018-06-04T09:57:59.521Z,27.80
2018-06-04T10:00:34.863Z,28.00
2018-06-04T10:03:07.064Z,28.10
2018-06-04T10:05:38.779Z,28.20
2018-06-04T10:10:41.343Z,28.50
2018-06-04T10:13:13.042Z,28.60
2018-06-04T10:15:44.562Z,28.70
2018-06-04T10:18:16.264Z,28.70
2018-06-04T10:20:47.865Z,28.70
2018-06-04T10:23:19.578Z,28.70
2018-06-04T10:25:51.194Z,28.80
2018-06-04T10:28:22.968Z,28.80
2018-06-04T10:30:54.515Z,28.90
2018-06-04T10:33:25.976Z,28.90
2018-06-04T10:35:57.707Z,28.80
2018-06-04T10:38:29.493Z,28.80
2018-06-04T10:41:01.118Z,29.00
2018-06-04T10:43:32.926Z,29.10
2018-06-04T10:46:04.534Z,29.40
2018-06-04T10:48:36.130Z,29.60
2018-06-04T10:51:07.637Z,29.70
2018-06-04T10:53:39.262Z,29.80
2018-06-04T10:56:10.961Z,29.90
2018-06-04T10:58:42.744Z,30.20
2018-06-04T11:01:14.361Z,30.40
2018-06-04T11:03:46.063Z,30.50
2018-06-04T11:06:17.672Z,30.40
2018-06-04T11:08:49.472Z,30.40
2018-06-04T11:11:21.213Z,30.50
2018-06-04T11:13:52.799Z,30.70
2018-06-04T11:16:24.413Z,30.90
2018-06-04T11:18:56.197Z,31.10
2018-06-04T11:21:27.886Z,31.40
2018-06-04T11:23:59.553Z,31.50
2018-06-04T11:26:31.382Z,31.30
2018-06-04T11:29:03.069Z,31.30
2018-06-04T11:31:34.890Z,31.10
2018-06-04T11:34:06.615Z,30.70
2018-06-04T11:36:38.201Z,30.40
2018-06-04T11:39:10.321Z,30.20
2018-06-04T11:41:41.998Z,30.00
2018-06-04T11:44:13.709Z,29.90
2018-06-04T11:46:45.228Z,29.80
2018-06-04T11:49:16.969Z,29.60
2018-06-04T11:51:48.649Z,29.60
2018-06-04T11:54:20.217Z,29.60
2018-06-04T11:56:51.928Z,29.70
2018-06-04T11:59:23.639Z,30.00
2018-06-04T12:01:55.197Z,30.20
2018-06-04T12:06:57.817Z,30.50
2018-06-04T12:09:29.321Z,30.60
2018-06-04T12:12:00.965Z,30.80
2018-06-04T12:14:32.609Z,30.80
2018-06-04T12:17:04.195Z,30.80
2018-06-04T12:19:35.825Z,30.70
2018-06-04T12:22:07.555Z,30.60
2018-06-04T12:24:39.271Z,30.60
2018-06-04T12:27:10.924Z,30.70
2018-06-04T12:29:42.563Z,30.80
2018-06-04T12:32:14.178Z,30.90
2018-06-04T12:34:45.868Z,30.90
2018-06-04T12:37:17.550Z,30.90
2018-06-04T12:39:49.114Z,30.90
2018-06-04T12:42:20.699Z,30.90
2018-06-04T12:44:52.332Z,30.90
2018-06-04T12:47:23.909Z,30.90
2018-06-04T12:49:55.653Z,31.00
2018-06-04T12:52:27.240Z,31.10
2018-06-04T12:54:59.057Z,31.00
2018-06-04T12:57:30.637Z,30.90
2018-06-04T13:00:02.384Z,30.80
2018-06-04T13:02:34.053Z,30.90
2018-06-04T13:05:05.793Z,30.90
2018-06-04T13:07:37.445Z,31.00
2018-06-04T13:10:08.945Z,31.10
2018-06-04T13:12:40.564Z,31.10
2018-06-04T13:15:12.162Z,31.20
2018-06-04T13:17:45.027Z,31.40
2018-06-04T13:20:16.625Z,31.40
2018-06-04T13:22:48.121Z,31.10
2018-06-04T13:25:19.706Z,30.70
2018-06-04T13:27:51.309Z,30.30
2018-06-04T13:30:22.809Z,30.00
2018-06-04T13:32:54.529Z,29.70
2018-06-04T13:35:26.365Z,29.40
2018-06-04T13:37:58.033Z,29.10
2018-06-04T13:40:29.472Z,29.00
2018-06-04T13:43:01.305Z,29.10
2018-06-04T13:45:32.885Z,29.30
2018-06-04T13:48:04.639Z,29.50
2018-06-04T13:50:36.277Z,29.60
2018-06-04T13:53:07.911Z,29.70
2018-06-04T13:55:39.719Z,29.80
2018-06-04T14:00:42.319Z,29.70
2018-06-04T14:05:44.881Z,29.90
2018-06-04T14:08:16.585Z,29.90
2018-06-04T14:10:48.225Z,29.90
2018-06-04T14:13:19.868Z,30.00
2018-06-04T14:15:51.541Z,30.00
2018-06-04T14:18:23.197Z,30.00
2018-06-04T14:20:54.818Z,30.00
2018-06-04T14:23:26.443Z,29.90
2018-06-04T14:25:58.020Z,29.80
2018-06-04T14:28:29.735Z,29.60
2018-06-04T14:31:01.361Z,29.40
2018-06-04T14:33:33.092Z,29.20
2018-06-04T14:36:04.760Z,28.90
2018-06-04T14:38:36.361Z,28.80
2018-06-04T14:41:08.102Z,28.90
2018-06-04T14:43:39.772Z,29.00
2018-06-04T14:46:11.416Z,29.10
2018-06-04T14:48:43.208Z,29.20
2018-06-04T14:51:14.801Z,29.30
2018-06-04T14:53:46.498Z,29.30
2018-06-04T14:58:49.086Z,29.30
2018-06-04T15:01:20.701Z,29.30
2018-06-04T15:03:52.352Z,29.30
2018-06-04T15:06:24.064Z,29.30
2018-06-04T15:08:55.736Z,29.30
2018-06-04T15:11:27.574Z,29.30
2018-06-04T15:13:59.283Z,29.30
2018-06-04T15:16:30.848Z,29.30
2018-06-04T15:19:02.541Z,29.30
2018-06-04T15:21:34.092Z,29.30
2018-06-04T15:26:36.916Z,29.20
2018-06-04T15:29:08.551Z,29.20
2018-06-04T15:31:40.205Z,29.20
2018-06-04T15:36:42.873Z,29.10
2018-06-04T15:39:14.497Z,29.00
2018-06-04T15:41:46.453Z,28.90
2018-06-04T15:44:18.119Z,28.80
2018-06-04T15:46:49.782Z,28.80
2018-06-04T15:49:21.593Z,28.70
2018-06-04T15:51:53.258Z,28.70
2018-06-04T15:56:55.942Z,28.50
2018-06-04T15:59:27.522Z,28.50
2018-06-04T16:01:59.264Z,28.50
2018-06-04T16:04:30.939Z,28.50
2018-06-04T16:07:02.484Z,28.50
2018-06-04T16:09:34.159Z,28.60
2018-06-04T16:12:05.822Z,28.60
2018-06-04T16:14:37.558Z,28.60
2018-06-04T16:17:09.137Z,28.60
2018-06-04T16:19:40.760Z,28.50
2018-06-04T16:22:12.388Z,28.60
2018-06-04T16:24:44.086Z,28.60
2018-06-04T16:27:15.783Z,28.60
2018-06-04T16:29:47.589Z,28.50
2018-06-04T16:32:19.181Z,28.50
2018-06-04T16:34:50.921Z,28.40
2018-06-04T16:37:22.681Z,28.40
2018-06-04T16:39:54.540Z,28.20
2018-06-04T16:42:26.325Z,28.20
2018-06-04T16:44:58.083Z,28.10
2018-06-04T16:47:31.105Z,28.00
2018-06-04T16:50:02.935Z,28.00
2018-06-04T16:52:34.766Z,27.90
2018-06-04T16:55:06.815Z,27.80
2018-06-04T16:57:38.889Z,27.80
2018-06-04T17:00:10.479Z,27.70
2018-06-04T17:02:42.131Z,27.70
2018-06-04T17:05:13.789Z,27.60
2018-06-04T17:07:45.449Z,27.50
2018-06-04T17:10:17.069Z,27.50
2018-06-04T17:12:48.734Z,27.40
2018-06-04T17:15:20.414Z,27.40
2018-06-04T17:17:52.101Z,27.30
2018-06-04T17:20:23.904Z,27.30
2018-06-04T17:22:55.578Z,27.20
2018-06-04T17:25:27.243Z,27.20
2018-06-04T17:27:58.980Z,27.10
2018-06-04T17:30:30.633Z,27.10
2018-06-04T17:33:02.380Z,27.00
2018-06-04T17:38:05.089Z,26.90
2018-06-04T17:40:36.673Z,26.80
2018-06-04T17:43:08.328Z,26.70
2018-06-04T17:45:39.989Z,26.60
2018-06-04T17:48:11.619Z,26.50
2018-06-04T17:50:43.196Z,26.50
2018-06-04T17:53:14.979Z,26.40
2018-06-04T17:55:46.609Z,26.30
2018-06-04T17:58:18.418Z,26.20
2018-06-04T18:00:50.109Z,26.10
2018-06-04T18:03:21.846Z,26.10
2018-06-04T18:05:53.515Z,26.00
2018-06-04T18:08:25.085Z,25.90
2018-06-04T18:10:56.829Z,25.80
2018-06-04T18:13:28.369Z,25.70
2018-06-04T18:16:00.050Z,25.60
2018-06-04T18:18:31.750Z,25.50
2018-06-04T18:21:03.377Z,25.40
2018-06-04T18:23:35.014Z,25.30
2018-06-04T18:26:06.771Z,25.30
2018-06-04T18:28:38.428Z,25.20
2018-06-04T18:31:10.277Z,25.10
2018-06-04T18:33:41.862Z,25.10
2018-06-04T18:36:13.685Z,25.00
2018-06-04T18:38:45.252Z,25.00
2018-06-04T18:41:17.027Z,24.90
2018-06-04T18:43:48.666Z,24.90
2018-06-04T18:46:20.221Z,24.90
2018-06-04T18:48:51.881Z,24.80
2018-06-04T18:53:54.770Z,24.70
2018-06-04T18:56:26.392Z,24.70
2018-06-04T18:58:58.101Z,24.60
2018-06-04T19:01:29.774Z,24.60
2018-06-04T19:04:01.433Z,24.50
2018-06-04T19:06:33.113Z,24.50
2018-06-04T19:09:05.671Z,24.40
2018-06-04T19:11:37.504Z,24.40
2018-06-04T19:16:40.200Z,24.30
2018-06-04T19:19:11.918Z,24.20
2018-06-04T19:21:43.513Z,24.10
2018-06-04T19:24:15.178Z,24.00
2018-06-04T19:26:46.858Z,23.90
2018-06-04T19:29:18.517Z,23.80
2018-06-04T19:31:50.376Z,23.70
2018-06-04T19:34:22.111Z,23.70
2018-06-04T19:36:53.852Z,23.60
2018-06-04T19:39:25.425Z,23.50
2018-06-04T19:44:28.042Z,23.40
2018-06-04T19:46:59.900Z,23.40
2018-06-04T19:49:31.537Z,23.30
2018-06-04T19:52:03.381Z,23.10
2018-06-04T19:54:35.042Z,23.10
2018-06-04T19:57:06.795Z,23.00
2018-06-04T19:59:38.467Z,22.80
2018-06-04T20:02:10.059Z,22.70
2018-06-04T20:04:41.782Z,22.70
2018-06-04T20:07:13.466Z,22.60
2018-06-04T20:09:45.038Z,22.50
2018-06-04T20:12:16.677Z,22.30
2018-06-04T20:14:48.451Z,22.20
2018-06-04T20:17:20.091Z,22.10
2018-06-04T20:19:51.867Z,22.10
2018-06-04T20:22:23.394Z,22.00
2018-06-04T20:24:55.185Z,21.90
2018-06-04T20:27:26.981Z,21.80
2018-06-04T20:29:58.702Z,21.70
2018-06-04T20:32:30.521Z,21.60
2018-06-04T20:35:02.198Z,21.50
2018-06-04T20:37:33.857Z,21.40
2018-06-04T20:40:05.875Z,21.30
2018-06-04T20:42:37.453Z,21.30
2018-06-04T20:45:09.209Z,21.30
2018-06-04T20:47:40.776Z,21.30
2018-06-04T20:50:12.620Z,21.20
2018-06-04T20:52:44.205Z,21.20
2018-06-04T20:55:15.934Z,21.20
2018-06-04T20:57:47.519Z,21.10
2018-06-04T21:00:19.296Z,21.10
2018-06-04T21:02:50.922Z,21.00
2018-06-04T21:05:22.610Z,21.00
2018-06-04T21:07:54.245Z,21.00
2018-06-04T21:10:26.025Z,21.00
2018-06-04T21:12:57.644Z,21.00
2018-06-04T21:15:29.411Z,21.00
2018-06-04T21:18:01.069Z,21.00
2018-06-04T21:20:32.809Z,21.00
2018-06-04T21:23:04.276Z,20.90
2018-06-04T21:25:36.014Z,20.90
2018-06-04T21:28:07.588Z,20.80
2018-06-04T21:30:39.539Z,20.80
2018-06-04T21:33:11.279Z,20.70
2018-06-04T21:35:42.949Z,20.70
2018-06-04T21:38:14.589Z,20.60
2018-06-04T21:40:46.273Z,20.60
2018-06-04T21:43:17.924Z,20.50
2018-06-04T21:45:49.581Z,20.30
2018-06-04T21:48:21.233Z,20.30
2018-06-04T21:50:52.869Z,20.20
2018-06-04T21:53:24.429Z,20.20
2018-06-04T21:55:56.197Z,20.10
2018-06-04T21:58:27.782Z,20.10
2018-06-04T22:00:59.437Z,20.00
2018-06-04T22:03:31.329Z,19.90
2018-06-04T22:06:02.925Z,19.80
2018-06-04T22:08:34.584Z,19.70
2018-06-04T22:11:06.256Z,19.70
2018-06-04T22:13:37.893Z,19.60
2018-06-04T22:16:09.469Z,19.60
2018-06-04T22:18:41.297Z,19.60
2018-06-04T22:21:12.898Z,19.60
2018-06-04T22:23:44.621Z,19.60
2018-06-04T22:26:16.519Z,19.60
2018-06-04T22:28:48.166Z,19.60
2018-06-04T22:31:19.798Z,19.60
2018-06-04T22:33:51.483Z,19.60
2018-06-04T22:36:23.260Z,19.60
2018-06-04T22:38:55.006Z,19.60
2018-06-04T22:41:26.748Z,19.50
2018-06-04T22:43:58.389Z,19.50
2018-06-04T22:46:30.043Z,19.50
2018-06-04T22:49:05.678Z,19.50
2018-06-04T22:51:37.859Z,19.50
2018-06-04T22:54:09.575Z,19.50
2018-06-04T22:56:41.274Z,19.50
2018-06-04T22:59:12.830Z,19.40
2018-06-04T23:04:15.452Z,19.40
2018-06-04T23:06:47.248Z,19.30
2018-06-04T23:09:18.876Z,19.30
2018-06-04T23:11:50.621Z,19.30
2018-06-04T23:14:22.286Z,19.30
2018-06-04T23:16:54.025Z,19.30
2018-06-04T23:19:25.502Z,19.30
2018-06-04T23:21:57.222Z,19.30
2018-06-04T23:24:28.976Z,19.30
2018-06-04T23:27:00.634Z,19.30
2018-06-04T23:29:32.201Z,19.30
2018-06-04T23:32:03.856Z,19.30
2018-06-04T23:34:35.508Z,19.30
2018-06-04T23:37:07.165Z,19.30
2018-06-04T23:39:38.721Z,19.20
2018-06-04T23:42:10.382Z,19.20
2018-06-04T23:44:41.966Z,19.20
2018-06-04T23:47:13.591Z,19.20
2018-06-04T23:49:45.170Z,19.10
2018-06-04T23:52:16.811Z,19.00
2018-06-04T23:54:48.560Z,19.00
2018-06-04T23:57:20.109Z,19.00
2018-06-04T23:59:51.692Z,18.90
